Portage Lake, Maine
Current Conditions -  °F | °C
As of 8:35 PM on Sunday 23 Nov 2014 (Local Time) from KPQI Reporting Station
Overcast Overcast  
Wind Chill: 34°   Ceiling: 4500
Heat Index: 37°   Visibility: 10mi
Dew Point: 30°   Wind: 5mph
Humidity: 75%   Direction: 200°SSW
Pressure: 30.1"   Gusts: NA
Location:  46.7854°N, 68.6205°W
Report Text: KPQI 240135Z AUTO 20004KT 10SM OVC045 03/M01 A3010 RMK AO1
Loading
Personal Weather Stations






























Interactive Weather Map New forecast layout! Learn more

10-Day Weather Forecast

Advertisements
Track Severe Weather on mobile